sensor_id;sensor_type;location;lat;lon;timestamp;temperature;humidity
54788;DHT22;59598;48.112;16.280;2022-08-04T00:10:59;18.40;99.90
54788;DHT22;59598;48.112;16.280;2022-08-04T00:13:40;18.30;99.90
54788;DHT22;59598;48.112;16.280;2022-08-04T00:16:17;18.30;99.90
54788;DHT22;59598;48.112;16.280;2022-08-04T00:19:03;18.20;99.90
54788;DHT22;59598;48.112;16.280;2022-08-04T00:21:47;18.20;99.90
54788;DHT22;59598;48.112;16.280;2022-08-04T00:24:24;18.40;99.90
54788;DHT22;59598;48.112;16.280;2022-08-04T00:26:55;18.40;99.90
54788;DHT22;59598;48.112;16.280;2022-08-04T00:29:31;18.40;99.90
54788;DHT22;59598;48.112;16.280;2022-08-04T00:32:05;18.50;99.90
54788;DHT22;59598;48.112;16.280;2022-08-04T00:34:37;18.50;99.90
54788;DHT22;59598;48.112;16.280;2022-08-04T00:37:09;18.50;99.90
54788;DHT22;59598;48.112;16.280;2022-08-04T00:39:43;18.60;99.90
54788;DHT22;59598;48.112;16.280;2022-08-04T00:42:20;18.60;99.90
54788;DHT22;59598;48.112;16.280;2022-08-04T00:45:13;18.60;99.90
54788;DHT22;59598;48.112;16.280;2022-08-04T00:50:48;18.50;99.90
54788;DHT22;59598;48.112;16.280;2022-08-04T01:08:58;18.00;99.90
54788;DHT22;59598;48.112;16.280;2022-08-04T01:20:24;17.80;99.90
54788;DHT22;59598;48.112;16.280;2022-08-04T01:23:47;17.70;99.90
54788;DHT22;59598;48.112;16.280;2022-08-04T01:26:32;17.50;99.90
54788;DHT22;59598;48.112;16.280;2022-08-04T01:29:13;17.40;99.90
54788;DHT22;59598;48.112;16.280;2022-08-04T01:31:59;17.30;99.90
54788;DHT22;59598;48.112;16.280;2022-08-04T01:34:38;17.20;99.90
54788;DHT22;59598;48.112;16.280;2022-08-04T01:40:08;17.20;99.90
54788;DHT22;59598;48.112;16.280;2022-08-04T01:42:44;17.20;99.90
54788;DHT22;59598;48.112;16.280;2022-08-04T01:45:23;17.10;99.90
54788;DHT22;59598;48.112;16.280;2022-08-04T01:47:55;17.00;99.90
54788;DHT22;59598;48.112;16.280;2022-08-04T01:50:41;17.00;99.90
54788;DHT22;59598;48.112;16.280;2022-08-04T01:53:13;17.10;99.90
54788;DHT22;59598;48.112;16.280;2022-08-04T01:55:47;17.20;99.90
54788;DHT22;59598;48.112;16.280;2022-08-04T01:58:19;17.20;99.90
54788;DHT22;59598;48.112;16.280;2022-08-04T02:01:07;17.20;99.90
54788;DHT22;59598;48.112;16.280;2022-08-04T02:03:44;17.10;99.90
54788;DHT22;59598;48.112;16.280;2022-08-04T02:12:26;17.20;99.90
54788;DHT22;59598;48.112;16.280;2022-08-04T02:15:39;17.10;99.90
54788;DHT22;59598;48.112;16.280;2022-08-04T02:18:08;16.90;99.90
54788;DHT22;59598;48.112;16.280;2022-08-04T02:20:47;16.80;99.90
54788;DHT22;59598;48.112;16.280;2022-08-04T02:23:43;16.80;99.90
54788;DHT22;59598;48.112;16.280;2022-08-04T02:26:20;16.70;99.90
54788;DHT22;59598;48.112;16.280;2022-08-04T02:29:20;16.70;99.90
54788;DHT22;59598;48.112;16.280;2022-08-04T02:32:06;16.70;99.90
54788;DHT22;59598;48.112;16.280;2022-08-04T02:37:52;16.60;99.90
54788;DHT22;59598;48.112;16.280;2022-08-04T02:40:29;16.60;99.90
54788;DHT22;59598;48.112;16.280;2022-08-04T02:43:03;16.60;99.90
54788;DHT22;59598;48.112;16.280;2022-08-04T02:49:06;16.50;99.90
54788;DHT22;59598;48.112;16.280;2022-08-04T02:51:42;16.50;99.90
54788;DHT22;59598;48.112;16.280;2022-08-04T02:54:27;16.40;99.90
54788;DHT22;59598;48.112;16.280;2022-08-04T02:57:01;16.50;99.90
54788;DHT22;59598;48.112;16.280;2022-08-04T03:00:07;16.50;99.90
54788;DHT22;59598;48.112;16.280;2022-08-04T03:11:34;16.40;99.90
54788;DHT22;59598;48.112;16.280;2022-08-04T03:25:52;16.20;99.90
54788;DHT22;59598;48.112;16.280;2022-08-04T03:45:50;16.30;99.90
54788;DHT22;59598;48.112;16.280;2022-08-04T03:48:42;16.30;99.90
54788;DHT22;59598;48.112;16.280;2022-08-04T04:02:54;16.60;99.90
54788;DHT22;59598;48.112;16.280;2022-08-04T04:06:24;16.70;99.90
54788;DHT22;59598;48.112;16.280;2022-08-04T04:19:59;17.90;99.90
54788;DHT22;59598;48.112;16.280;2022-08-04T04:22:52;18.10;99.90
54788;DHT22;59598;48.112;16.280;2022-08-04T04:39:24;18.90;99.90
54788;DHT22;59598;48.112;16.280;2022-08-04T04:42:12;19.10;99.90
54788;DHT22;59598;48.112;16.280;2022-08-04T04:56:40;19.80;99.90
54788;DHT22;59598;48.112;16.280;2022-08-04T04:59:18;20.10;99.90
54788;DHT22;59598;48.112;16.280;2022-08-04T05:02:28;20.30;99.90
54788;DHT22;59598;48.112;16.280;2022-08-04T05:13:47;21.10;99.90
54788;DHT22;59598;48.112;16.280;2022-08-04T05:16:29;21.40;99.90
54788;DHT22;59598;48.112;16.280;2022-08-04T05:25:06;22.40;99.90
54788;DHT22;59598;48.112;16.280;2022-08-04T05:28:09;22.70;99.90
54788;DHT22;59598;48.112;16.280;2022-08-04T05:30:45;22.90;99.90
54788;DHT22;59598;48.112;16.280;2022-08-04T05:33:31;23.10;99.90
54788;DHT22;59598;48.112;16.280;2022-08-04T05:36:07;23.60;99.90
54788;DHT22;59598;48.112;16.280;2022-08-04T05:38:43;23.80;99.90
54788;DHT22;59598;48.112;16.280;2022-08-04T05:41:16;23.90;99.90
54788;DHT22;59598;48.112;16.280;2022-08-04T05:43:50;24.20;99.90
54788;DHT22;59598;48.112;16.280;2022-08-04T05:46:22;24.60;99.90
54788;DHT22;59598;48.112;16.280;2022-08-04T05:48:53;24.90;99.90
54788;DHT22;59598;48.112;16.280;2022-08-04T05:51:26;25.30;99.90
54788;DHT22;59598;48.112;16.280;2022-08-04T05:53:58;25.50;99.90
54788;DHT22;59598;48.112;16.280;2022-08-04T05:56:31;25.70;99.90
54788;DHT22;59598;48.112;16.280;2022-08-04T05:59:04;25.80;99.90
54788;DHT22;59598;48.112;16.280;2022-08-04T06:01:37;25.90;99.90
54788;DHT22;59598;48.112;16.280;2022-08-04T06:04:10;26.00;99.90
54788;DHT22;59598;48.112;16.280;2022-08-04T06:06:43;26.20;99.90
54788;DHT22;59598;48.112;16.280;2022-08-04T06:09:15;26.30;99.90
54788;DHT22;59598;48.112;16.280;2022-08-04T06:11:47;26.40;99.90
54788;DHT22;59598;48.112;16.280;2022-08-04T06:14:21;26.60;99.90
54788;DHT22;59598;48.112;16.280;2022-08-04T06:16:54;26.80;99.90
54788;DHT22;59598;48.112;16.280;2022-08-04T06:19:26;27.30;99.90
54788;DHT22;59598;48.112;16.280;2022-08-04T06:22:02;27.60;99.90
54788;DHT22;59598;48.112;16.280;2022-08-04T06:24:39;28.00;99.90
54788;DHT22;59598;48.112;16.280;2022-08-04T06:27:11;28.10;99.90
54788;DHT22;59598;48.112;16.280;2022-08-04T06:29:44;28.30;99.90
54788;DHT22;59598;48.112;16.280;2022-08-04T06:32:17;28.30;99.90
54788;DHT22;59598;48.112;16.280;2022-08-04T06:34:59;28.70;99.90
54788;DHT22;59598;48.112;16.280;2022-08-04T06:37:33;28.80;99.90
54788;DHT22;59598;48.112;16.280;2022-08-04T06:40:14;28.80;99.90
54788;DHT22;59598;48.112;16.280;2022-08-04T06:42:47;29.50;99.90
54788;DHT22;59598;48.112;16.280;2022-08-04T06:45:19;29.40;99.90
54788;DHT22;59598;48.112;16.280;2022-08-04T06:47:51;29.60;99.90
54788;DHT22;59598;48.112;16.280;2022-08-04T06:50:25;29.10;99.90
54788;DHT22;59598;48.112;16.280;2022-08-04T06:52:57;29.30;99.90
54788;DHT22;59598;48.112;16.280;2022-08-04T06:55:33;29.50;99.90
54788;DHT22;59598;48.112;16.280;2022-08-04T06:58:05;29.60;99.90
54788;DHT22;59598;48.112;16.280;2022-08-04T07:00:39;29.70;99.90
54788;DHT22;59598;48.112;16.280;2022-08-04T07:03:11;29.80;99.90
54788;DHT22;59598;48.112;16.280;2022-08-04T07:05:48;29.90;99.90
54788;DHT22;59598;48.112;16.280;2022-08-04T07:08:21;30.10;99.90
54788;DHT22;59598;48.112;16.280;2022-08-04T07:10:52;30.10;99.90
54788;DHT22;59598;48.112;16.280;2022-08-04T07:13:25;29.90;99.90
54788;DHT22;59598;48.112;16.280;2022-08-04T07:15:58;30.00;99.90
54788;DHT22;59598;48.112;16.280;2022-08-04T07:18:30;29.70;99.90
54788;DHT22;59598;48.112;16.280;2022-08-04T07:21:06;29.70;99.90
54788;DHT22;59598;48.112;16.280;2022-08-04T07:23:38;29.40;99.90
54788;DHT22;59598;48.112;16.280;2022-08-04T07:26:09;29.40;99.90
54788;DHT22;59598;48.112;16.280;2022-08-04T07:28:40;29.70;99.90
54788;DHT22;59598;48.112;16.280;2022-08-04T07:31:15;29.90;99.90
54788;DHT22;59598;48.112;16.280;2022-08-04T07:33:49;29.60;99.90
54788;DHT22;59598;48.112;16.280;2022-08-04T07:36:21;29.90;99.90
54788;DHT22;59598;48.112;16.280;2022-08-04T07:38:57;30.30;99.90
54788;DHT22;59598;48.112;16.280;2022-08-04T07:41:28;30.50;99.90
54788;DHT22;59598;48.112;16.280;2022-08-04T07:43:59;30.20;99.90
54788;DHT22;59598;48.112;16.280;2022-08-04T07:46:31;30.50;99.90
54788;DHT22;59598;48.112;16.280;2022-08-04T07:49:06;30.60;99.90
54788;DHT22;59598;48.112;16.280;2022-08-04T07:51:38;30.70;99.90
54788;DHT22;59598;48.112;16.280;2022-08-04T07:54:10;30.70;99.90
54788;DHT22;59598;48.112;16.280;2022-08-04T07:56:42;29.90;99.90
54788;DHT22;59598;48.112;16.280;2022-08-04T07:59:15;30.20;99.90
54788;DHT22;59598;48.112;16.280;2022-08-04T08:01:46;30.30;99.90
54788;DHT22;59598;48.112;16.280;2022-08-04T08:04:18;30.50;99.90
54788;DHT22;59598;48.112;16.280;2022-08-04T08:06:50;30.90;99.90
54788;DHT22;59598;48.112;16.280;2022-08-04T08:09:21;30.90;99.90
54788;DHT22;59598;48.112;16.280;2022-08-04T08:11:53;31.00;99.90
54788;DHT22;59598;48.112;16.280;2022-08-04T08:14:28;31.50;99.90
54788;DHT22;59598;48.112;16.280;2022-08-04T08:17:01;32.00;99.90
54788;DHT22;59598;48.112;16.280;2022-08-04T08:19:33;32.40;99.90
54788;DHT22;59598;48.112;16.280;2022-08-04T08:22:10;32.40;99.90
54788;DHT22;59598;48.112;16.280;2022-08-04T08:24:44;32.30;99.90
54788;DHT22;59598;48.112;16.280;2022-08-04T08:27:15;32.10;99.90
54788;DHT22;59598;48.112;16.280;2022-08-04T08:29:46;32.50;99.90
54788;DHT22;59598;48.112;16.280;2022-08-04T08:32:18;32.20;99.90
54788;DHT22;59598;48.112;16.280;2022-08-04T08:34:50;32.40;99.90
54788;DHT22;59598;48.112;16.280;2022-08-04T08:40:26;33.00;99.90
54788;DHT22;59598;48.112;16.280;2022-08-04T08:43:23;32.90;99.90
54788;DHT22;59598;48.112;16.280;2022-08-04T08:51:52;33.00;99.90
54788;DHT22;59598;48.112;16.280;2022-08-04T08:54:38;33.30;99.90
54788;DHT22;59598;48.112;16.280;2022-08-04T09:00:44;33.60;99.90
54788;DHT22;59598;48.112;16.280;2022-08-04T09:03:46;34.00;99.90
54788;DHT22;59598;48.112;16.280;2022-08-04T09:12:35;34.20;99.90
54788;DHT22;59598;48.112;16.280;2022-08-04T09:15:16;34.30;99.90
54788;DHT22;59598;48.112;16.280;2022-08-04T09:18:02;34.30;99.90
54788;DHT22;59598;48.112;16.280;2022-08-04T09:21:17;34.70;99.90
54788;DHT22;59598;48.112;16.280;2022-08-04T09:24:10;35.00;99.90
54788;DHT22;59598;48.112;16.280;2022-08-04T09:34:40;34.90;99.90
54788;DHT22;59598;48.112;16.280;2022-08-04T09:40:25;35.20;99.90
54788;DHT22;59598;48.112;16.280;2022-08-04T09:46:44;34.50;99.90
54788;DHT22;59598;48.112;16.280;2022-08-04T09:49:22;34.90;99.90
54788;DHT22;59598;48.112;16.280;2022-08-04T09:55:29;35.30;99.90
54788;DHT22;59598;48.112;16.280;2022-08-04T09:58:35;35.80;99.90
54788;DHT22;59598;48.112;16.280;2022-08-04T10:01:07;36.30;99.90
54788;DHT22;59598;48.112;16.280;2022-08-04T10:03:47;35.90;99.00
54788;DHT22;59598;48.112;16.280;2022-08-04T10:09:40;35.80;98.80
54788;DHT22;59598;48.112;16.280;2022-08-04T10:12:30;36.20;98.30
54788;DHT22;59598;48.112;16.280;2022-08-04T10:18:03;36.00;97.70
54788;DHT22;59598;48.112;16.280;2022-08-04T10:21:04;36.20;97.20
54788;DHT22;59598;48.112;16.280;2022-08-04T10:24:04;36.70;96.40
54788;DHT22;59598;48.112;16.280;2022-08-04T10:27:01;36.90;96.00
54788;DHT22;59598;48.112;16.280;2022-08-04T10:29:49;36.80;95.80
54788;DHT22;59598;48.112;16.280;2022-08-04T10:35:13;37.00;95.50
54788;DHT22;59598;48.112;16.280;2022-08-04T10:38:10;37.60;95.40
54788;DHT22;59598;48.112;16.280;2022-08-04T10:40:49;37.90;95.00
54788;DHT22;59598;48.112;16.280;2022-08-04T10:46:28;38.80;93.70
54788;DHT22;59598;48.112;16.280;2022-08-04T10:49:09;37.90;94.20
54788;DHT22;59598;48.112;16.280;2022-08-04T10:52:00;37.60;94.60
54788;DHT22;59598;48.112;16.280;2022-08-04T10:57:28;38.30;93.60
54788;DHT22;59598;48.112;16.280;2022-08-04T11:00:14;38.40;93.40
54788;DHT22;59598;48.112;16.280;2022-08-04T11:02:57;39.10;92.80
54788;DHT22;59598;48.112;16.280;2022-08-04T11:14:09;40.20;91.80
54788;DHT22;59598;48.112;16.280;2022-08-04T11:17:00;41.30;91.20
54788;DHT22;59598;48.112;16.280;2022-08-04T11:22:40;42.10;90.10
54788;DHT22;59598;48.112;16.280;2022-08-04T11:25:22;42.10;89.10
54788;DHT22;59598;48.112;16.280;2022-08-04T11:28:07;41.80;87.80
54788;DHT22;59598;48.112;16.280;2022-08-04T11:30:41;40.80;87.80
54788;DHT22;59598;48.112;16.280;2022-08-04T11:36:24;41.90;88.50
54788;DHT22;59598;48.112;16.280;2022-08-04T11:39:15;42.30;87.60
54788;DHT22;59598;48.112;16.280;2022-08-04T11:41:55;42.60;87.10
54788;DHT22;59598;48.112;16.280;2022-08-04T11:44:39;42.60;86.80
54788;DHT22;59598;48.112;16.280;2022-08-04T11:47:28;41.30;88.00
54788;DHT22;59598;48.112;16.280;2022-08-04T11:50:10;42.10;87.50
54788;DHT22;59598;48.112;16.280;2022-08-04T11:52:43;42.40;86.70
54788;DHT22;59598;48.112;16.280;2022-08-04T11:55:16;42.30;86.10
54788;DHT22;59598;48.112;16.280;2022-08-04T11:57:51;41.10;87.20
54788;DHT22;59598;48.112;16.280;2022-08-04T12:00:24;41.70;86.70
54788;DHT22;59598;48.112;16.280;2022-08-04T12:03:10;42.50;85.40
54788;DHT22;59598;48.112;16.280;2022-08-04T12:06:35;43.80;85.50
54788;DHT22;59598;48.112;16.280;2022-08-04T12:11:51;43.40;84.40
54788;DHT22;59598;48.112;16.280;2022-08-04T12:14:54;42.00;84.60
54788;DHT22;59598;48.112;16.280;2022-08-04T12:17:37;42.60;84.50
54788;DHT22;59598;48.112;16.280;2022-08-04T12:20:16;43.00;83.90
54788;DHT22;59598;48.112;16.280;2022-08-04T12:22:50;44.70;84.10
54788;DHT22;59598;48.112;16.280;2022-08-04T12:25:38;44.10;82.40
54788;DHT22;59598;48.112;16.280;2022-08-04T12:28:30;43.60;81.80
54788;DHT22;59598;48.112;16.280;2022-08-04T12:34:12;44.50;81.50
54788;DHT22;59598;48.112;16.280;2022-08-04T12:39:37;44.30;81.40
54788;DHT22;59598;48.112;16.280;2022-08-04T12:42:21;45.40;80.90
54788;DHT22;59598;48.112;16.280;2022-08-04T12:44:54;45.90;79.50
54788;DHT22;59598;48.112;16.280;2022-08-04T12:47:28;45.20;79.20
54788;DHT22;59598;48.112;16.280;2022-08-04T12:50:07;44.30;79.20
54788;DHT22;59598;48.112;16.280;2022-08-04T12:52:50;43.10;81.20
54788;DHT22;59598;48.112;16.280;2022-08-04T12:55:26;42.30;81.20
54788;DHT22;59598;48.112;16.280;2022-08-04T12:58:00;42.10;81.80
54788;DHT22;59598;48.112;16.280;2022-08-04T13:00:37;42.40;81.00
54788;DHT22;59598;48.112;16.280;2022-08-04T13:03:15;43.10;80.90
54788;DHT22;59598;48.112;16.280;2022-08-04T13:05:53;43.40;79.20
54788;DHT22;59598;48.112;16.280;2022-08-04T13:08:25;43.10;80.20
54788;DHT22;59598;48.112;16.280;2022-08-04T13:10:59;43.50;80.90
54788;DHT22;59598;48.112;16.280;2022-08-04T13:13:36;45.10;79.60
54788;DHT22;59598;48.112;16.280;2022-08-04T13:16:10;45.60;78.30
54788;DHT22;59598;48.112;16.280;2022-08-04T13:18:48;43.30;78.70
54788;DHT22;59598;48.112;16.280;2022-08-04T13:21:21;43.30;79.10
54788;DHT22;59598;48.112;16.280;2022-08-04T13:24:06;42.80;79.80
54788;DHT22;59598;48.112;16.280;2022-08-04T13:30:06;45.20;78.30
54788;DHT22;59598;48.112;16.280;2022-08-04T13:32:40;45.60;77.70
54788;DHT22;59598;48.112;16.280;2022-08-04T13:35:12;44.10;77.60
54788;DHT22;59598;48.112;16.280;2022-08-04T13:37:44;44.90;77.20
54788;DHT22;59598;48.112;16.280;2022-08-04T13:40:50;45.60;76.50
54788;DHT22;59598;48.112;16.280;2022-08-04T13:43:25;45.90;76.60
54788;DHT22;59598;48.112;16.280;2022-08-04T13:46:04;46.00;75.60
54788;DHT22;59598;48.112;16.280;2022-08-04T13:48:40;46.20;74.80
54788;DHT22;59598;48.112;16.280;2022-08-04T13:51:19;45.80;75.20
54788;DHT22;59598;48.112;16.280;2022-08-04T13:53:57;43.60;76.30
54788;DHT22;59598;48.112;16.280;2022-08-04T13:56:33;43.10;77.50
54788;DHT22;59598;48.112;16.280;2022-08-04T13:59:10;44.00;76.50
54788;DHT22;59598;48.112;16.280;2022-08-04T14:02:13;43.50;77.00
54788;DHT22;59598;48.112;16.280;2022-08-04T14:05:23;44.00;76.30
54788;DHT22;59598;48.112;16.280;2022-08-04T14:11:11;43.80;76.60
54788;DHT22;59598;48.112;16.280;2022-08-04T14:13:45;44.90;76.20
54788;DHT22;59598;48.112;16.280;2022-08-04T14:25:05;44.90;75.10
54788;DHT22;59598;48.112;16.280;2022-08-04T14:27:52;44.20;75.20
54788;DHT22;59598;48.112;16.280;2022-08-04T14:33:08;43.80;75.90
54788;DHT22;59598;48.112;16.280;2022-08-04T14:35:40;44.50;75.00
54788;DHT22;59598;48.112;16.280;2022-08-04T14:38:14;45.50;74.40
54788;DHT22;59598;48.112;16.280;2022-08-04T14:40:45;45.70;73.60
54788;DHT22;59598;48.112;16.280;2022-08-04T14:43:17;46.40;73.90
54788;DHT22;59598;48.112;16.280;2022-08-04T14:45:49;43.10;74.90
54788;DHT22;59598;48.112;16.280;2022-08-04T14:48:24;43.60;75.00
54788;DHT22;59598;48.112;16.280;2022-08-04T14:50:56;43.60;75.70
54788;DHT22;59598;48.112;16.280;2022-08-04T14:53:33;43.70;75.20
54788;DHT22;59598;48.112;16.280;2022-08-04T14:56:10;44.00;74.90
54788;DHT22;59598;48.112;16.280;2022-08-04T14:58:41;41.60;76.10
54788;DHT22;59598;48.112;16.280;2022-08-04T15:01:13;42.70;76.40
54788;DHT22;59598;48.112;16.280;2022-08-04T15:03:49;41.90;76.80
54788;DHT22;59598;48.112;16.280;2022-08-04T15:06:22;41.60;76.60
54788;DHT22;59598;48.112;16.280;2022-08-04T15:08:58;41.60;77.70
54788;DHT22;59598;48.112;16.280;2022-08-04T15:11:30;43.10;76.30
54788;DHT22;59598;48.112;16.280;2022-08-04T15:14:01;42.90;76.00
54788;DHT22;59598;48.112;16.280;2022-08-04T15:16:35;42.10;76.50
54788;DHT22;59598;48.112;16.280;2022-08-04T15:19:09;41.10;77.30
54788;DHT22;59598;48.112;16.280;2022-08-04T15:21:43;41.90;77.00
54788;DHT22;59598;48.112;16.280;2022-08-04T15:24:14;41.70;76.40
54788;DHT22;59598;48.112;16.280;2022-08-04T15:26:52;40.30;78.90
54788;DHT22;59598;48.112;16.280;2022-08-04T15:32:04;41.20;77.80
54788;DHT22;59598;48.112;16.280;2022-08-04T15:34:51;41.60;77.40
54788;DHT22;59598;48.112;16.280;2022-08-04T15:37:28;40.60;77.60
54788;DHT22;59598;48.112;16.280;2022-08-04T15:45:53;40.00;78.80
54788;DHT22;59598;48.112;16.280;2022-08-04T15:48:27;40.30;78.80
54788;DHT22;59598;48.112;16.280;2022-08-04T15:51:01;40.90;78.20
54788;DHT22;59598;48.112;16.280;2022-08-04T15:59:02;38.60;81.20
54788;DHT22;59598;48.112;16.280;2022-08-04T16:01:36;38.50;81.60
54788;DHT22;59598;48.112;16.280;2022-08-04T16:04:22;38.80;80.70
54788;DHT22;59598;48.112;16.280;2022-08-04T16:07:08;39.20;80.40
54788;DHT22;59598;48.112;16.280;2022-08-04T16:09:40;38.50;81.10
54788;DHT22;59598;48.112;16.280;2022-08-04T16:15:44;37.90;81.70
54788;DHT22;59598;48.112;16.280;2022-08-04T16:21:16;38.70;81.20
54788;DHT22;59598;48.112;16.280;2022-08-04T16:26:51;38.80;81.00
54788;DHT22;59598;48.112;16.280;2022-08-04T16:29:29;38.20;81.50
54788;DHT22;59598;48.112;16.280;2022-08-04T16:37:15;36.20;84.70
54788;DHT22;59598;48.112;16.280;2022-08-04T16:40:22;36.20;84.60
54788;DHT22;59598;48.112;16.280;2022-08-04T16:42:43;35.90;84.80
54788;DHT22;59598;48.112;16.280;2022-08-04T16:45:15;36.20;84.60
54788;DHT22;59598;48.112;16.280;2022-08-04T16:50:20;35.10;86.30
54788;DHT22;59598;48.112;16.280;2022-08-04T16:52:54;35.20;86.70
54788;DHT22;59598;48.112;16.280;2022-08-04T16:55:27;34.60;87.00
54788;DHT22;59598;48.112;16.280;2022-08-04T16:57:58;34.60;87.30
54788;DHT22;59598;48.112;16.280;2022-08-04T17:00:32;34.20;87.50
54788;DHT22;59598;48.112;16.280;2022-08-04T17:03:06;33.60;88.70
54788;DHT22;59598;48.112;16.280;2022-08-04T17:05:39;33.30;89.50
54788;DHT22;59598;48.112;16.280;2022-08-04T17:08:11;32.90;90.00
54788;DHT22;59598;48.112;16.280;2022-08-04T17:10:44;32.60;90.40
54788;DHT22;59598;48.112;16.280;2022-08-04T17:16:01;32.00;91.00
54788;DHT22;59598;48.112;16.280;2022-08-04T17:18:38;31.80;91.20
54788;DHT22;59598;48.112;16.280;2022-08-04T17:21:20;31.60;91.40
54788;DHT22;59598;48.112;16.280;2022-08-04T17:23:59;31.40;91.70
54788;DHT22;59598;48.112;16.280;2022-08-04T17:26:36;31.20;91.90
54788;DHT22;59598;48.112;16.280;2022-08-04T17:29:10;31.10;92.20
54788;DHT22;59598;48.112;16.280;2022-08-04T17:31:44;31.00;92.50
54788;DHT22;59598;48.112;16.280;2022-08-04T17:34:25;30.90;92.50
54788;DHT22;59598;48.112;16.280;2022-08-04T17:37:04;30.70;92.60
54788;DHT22;59598;48.112;16.280;2022-08-04T17:39:38;30.60;92.60
54788;DHT22;59598;48.112;16.280;2022-08-04T17:42:09;30.50;92.80
54788;DHT22;59598;48.112;16.280;2022-08-04T17:44:40;30.40;93.00
54788;DHT22;59598;48.112;16.280;2022-08-04T17:47:16;30.20;93.20
54788;DHT22;59598;48.112;16.280;2022-08-04T17:50:05;30.10;93.30
54788;DHT22;59598;48.112;16.280;2022-08-04T17:53:00;30.00;93.50
54788;DHT22;59598;48.112;16.280;2022-08-04T17:55:47;29.90;93.70
54788;DHT22;59598;48.112;16.280;2022-08-04T17:58:22;29.90;93.70
54788;DHT22;59598;48.112;16.280;2022-08-04T18:00:59;29.80;93.70
54788;DHT22;59598;48.112;16.280;2022-08-04T18:03:34;29.70;94.00
54788;DHT22;59598;48.112;16.280;2022-08-04T18:09:53;29.50;94.10
54788;DHT22;59598;48.112;16.280;2022-08-04T18:12:34;29.30;94.20
54788;DHT22;59598;48.112;16.280;2022-08-04T18:15:19;29.20;94.50
54788;DHT22;59598;48.112;16.280;2022-08-04T18:17:52;29.10;94.60
54788;DHT22;59598;48.112;16.280;2022-08-04T18:20:25;28.90;94.60
54788;DHT22;59598;48.112;16.280;2022-08-04T18:23:02;28.80;94.90
54788;DHT22;59598;48.112;16.280;2022-08-04T18:25:33;28.70;95.00
54788;DHT22;59598;48.112;16.280;2022-08-04T18:28:07;28.60;95.20
54788;DHT22;59598;48.112;16.280;2022-08-04T18:30:43;28.50;95.40
54788;DHT22;59598;48.112;16.280;2022-08-04T18:33:17;28.40;95.50
54788;DHT22;59598;48.112;16.280;2022-08-04T18:35:51;28.30;95.70
54788;DHT22;59598;48.112;16.280;2022-08-04T18:38:22;28.20;96.20
54788;DHT22;59598;48.112;16.280;2022-08-04T18:40:53;28.10;96.40
54788;DHT22;59598;48.112;16.280;2022-08-04T18:43:25;27.80;96.70
54788;DHT22;59598;48.112;16.280;2022-08-04T18:45:57;27.70;97.20
54788;DHT22;59598;48.112;16.280;2022-08-04T18:48:28;27.50;97.10
54788;DHT22;59598;48.112;16.280;2022-08-04T18:51:04;27.30;97.10
54788;DHT22;59598;48.112;16.280;2022-08-04T18:53:41;27.30;96.90
54788;DHT22;59598;48.112;16.280;2022-08-04T18:56:13;27.10;97.60
54788;DHT22;59598;48.112;16.280;2022-08-04T18:58:45;26.90;98.50
54788;DHT22;59598;48.112;16.280;2022-08-04T19:01:19;26.80;98.40
54788;DHT22;59598;48.112;16.280;2022-08-04T19:03:50;26.80;99.30
54788;DHT22;59598;48.112;16.280;2022-08-04T19:06:24;26.70;98.90
54788;DHT22;59598;48.112;16.280;2022-08-04T19:08:58;26.60;99.90
54788;DHT22;59598;48.112;16.280;2022-08-04T19:11:32;26.60;99.90
54788;DHT22;59598;48.112;16.280;2022-08-04T19:14:04;26.40;99.90
54788;DHT22;59598;48.112;16.280;2022-08-04T19:16:35;26.30;99.90
54788;DHT22;59598;48.112;16.280;2022-08-04T19:19:09;26.20;99.90
54788;DHT22;59598;48.112;16.280;2022-08-04T19:21:46;26.10;99.90
54788;DHT22;59598;48.112;16.280;2022-08-04T19:24:17;26.00;99.90
54788;DHT22;59598;48.112;16.280;2022-08-04T19:26:48;25.80;99.90
54788;DHT22;59598;48.112;16.280;2022-08-04T19:29:19;25.80;99.90
54788;DHT22;59598;48.112;16.280;2022-08-04T19:31:51;25.70;99.90
54788;DHT22;59598;48.112;16.280;2022-08-04T19:34:24;25.70;99.90
54788;DHT22;59598;48.112;16.280;2022-08-04T19:36:58;25.70;99.90
54788;DHT22;59598;48.112;16.280;2022-08-04T19:39:29;25.70;99.90
54788;DHT22;59598;48.112;16.280;2022-08-04T19:42:05;25.60;99.90
54788;DHT22;59598;48.112;16.280;2022-08-04T19:44:37;25.60;99.90
54788;DHT22;59598;48.112;16.280;2022-08-04T19:47:08;25.60;99.90
54788;DHT22;59598;48.112;16.280;2022-08-04T19:49:39;25.60;99.90
54788;DHT22;59598;48.112;16.280;2022-08-04T19:52:13;25.50;99.90
54788;DHT22;59598;48.112;16.280;2022-08-04T19:54:49;25.40;99.90
54788;DHT22;59598;48.112;16.280;2022-08-04T19:57:20;25.40;99.90
54788;DHT22;59598;48.112;16.280;2022-08-04T19:59:53;25.30;99.90
54788;DHT22;59598;48.112;16.280;2022-08-04T20:02:24;25.20;99.90
54788;DHT22;59598;48.112;16.280;2022-08-04T20:04:55;25.20;99.90
54788;DHT22;59598;48.112;16.280;2022-08-04T20:07:27;25.10;99.90
54788;DHT22;59598;48.112;16.280;2022-08-04T20:10:02;25.10;99.90
54788;DHT22;59598;48.112;16.280;2022-08-04T20:12:39;25.10;99.90
54788;DHT22;59598;48.112;16.280;2022-08-04T20:15:10;25.10;99.90
54788;DHT22;59598;48.112;16.280;2022-08-04T20:17:44;25.00;99.90
54788;DHT22;59598;48.112;16.280;2022-08-04T20:20:15;24.90;99.90
54788;DHT22;59598;48.112;16.280;2022-08-04T20:22:47;24.90;99.90
54788;DHT22;59598;48.112;16.280;2022-08-04T20:25:19;24.80;99.90
54788;DHT22;59598;48.112;16.280;2022-08-04T20:27:50;24.80;99.90
54788;DHT22;59598;48.112;16.280;2022-08-04T20:30:22;24.90;99.90
54788;DHT22;59598;48.112;16.280;2022-08-04T20:32:54;25.10;99.90
54788;DHT22;59598;48.112;16.280;2022-08-04T20:35:28;25.10;99.90
54788;DHT22;59598;48.112;16.280;2022-08-04T20:38:02;24.90;99.90
54788;DHT22;59598;48.112;16.280;2022-08-04T20:40:34;24.80;99.90
54788;DHT22;59598;48.112;16.280;2022-08-04T20:43:08;24.70;99.90
54788;DHT22;59598;48.112;16.280;2022-08-04T20:45:40;24.60;99.90
54788;DHT22;59598;48.112;16.280;2022-08-04T20:48:11;24.50;99.90
54788;DHT22;59598;48.112;16.280;2022-08-04T20:50:46;24.40;99.90
54788;DHT22;59598;48.112;16.280;2022-08-04T20:53:20;24.30;99.90
54788;DHT22;59598;48.112;16.280;2022-08-04T20:55:51;24.20;99.90
54788;DHT22;59598;48.112;16.280;2022-08-04T20:58:24;24.10;99.90
54788;DHT22;59598;48.112;16.280;2022-08-04T21:00:55;24.10;99.90
54788;DHT22;59598;48.112;16.280;2022-08-04T21:03:29;24.00;99.90